createdAt,value
2019-04-29T00:00:28.938Z,1018.14
2019-04-29T00:01:28.942Z,1018.15
2019-04-29T00:02:28.925Z,1018.22
2019-04-29T00:03:28.907Z,1018.15
2019-04-29T00:04:28.899Z,1018.32
2019-04-29T00:05:28.879Z,1018.22
2019-04-29T00:06:28.879Z,1018.25
2019-04-29T00:07:28.870Z,1018.28
2019-04-29T00:08:28.865Z,1018.27
2019-04-29T00:09:30.933Z,1018.24
2019-04-29T00:10:28.832Z,1018.20
2019-04-29T00:11:28.821Z,1018.25
2019-04-29T00:12:28.829Z,1018.17
2019-04-29T00:13:28.807Z,1018.21
2019-04-29T00:14:28.790Z,1018.21
2019-04-29T00:15:28.782Z,1018.19
2019-04-29T00:16:28.782Z,1018.26
2019-04-29T00:17:28.753Z,1018.24
2019-04-29T00:18:28.760Z,1018.30
2019-04-29T00:19:28.741Z,1018.30
2019-04-29T00:20:28.718Z,1018.29
2019-04-29T00:21:28.710Z,1018.29
2019-04-29T00:22:28.757Z,1018.29
2019-04-29T00:23:28.701Z,1018.30
2019-04-29T00:24:28.677Z,1018.34
2019-04-29T00:25:28.657Z,1018.27
2019-04-29T00:26:28.649Z,1018.26
2019-04-29T00:27:28.660Z,1018.32
2019-04-29T00:28:28.628Z,1018.29
2019-04-29T00:29:28.631Z,1018.32
2019-04-29T00:30:28.617Z,1018.30
2019-04-29T00:31:28.606Z,1018.27
2019-04-29T00:32:28.609Z,1018.25
2019-04-29T00:33:28.581Z,1018.22
2019-04-29T00:34:28.568Z,1018.20
2019-04-29T00:35:28.570Z,1018.20
2019-04-29T00:36:28.557Z,1018.26
2019-04-29T00:37:28.547Z,1018.19
2019-04-29T00:38:28.536Z,1018.24
2019-04-29T00:39:28.508Z,1018.22
2019-04-29T00:40:28.504Z,1018.23
2019-04-29T00:41:28.510Z,1018.25
2019-04-29T00:42:28.479Z,1018.28
2019-04-29T00:43:28.499Z,1018.19
2019-04-29T00:44:28.469Z,1018.21
2019-04-29T00:45:28.472Z,1018.26
2019-04-29T00:46:28.435Z,1018.26
2019-04-29T00:47:28.435Z,1018.26
2019-04-29T00:48:28.433Z,1018.31
2019-04-29T00:49:28.425Z,1018.29
2019-04-29T00:50:28.385Z,1018.28
2019-04-29T00:51:28.386Z,1018.27
2019-04-29T00:52:28.366Z,1018.28
2019-04-29T00:53:28.361Z,1018.26
2019-04-29T00:54:28.356Z,1018.33
2019-04-29T00:55:28.355Z,1018.29
2019-04-29T00:56:28.337Z,1018.26
2019-04-29T00:57:28.318Z,1018.37
2019-04-29T00:58:28.307Z,1018.31
2019-04-29T00:59:28.307Z,1018.32
2019-04-29T01:00:28.289Z,1018.24
2019-04-29T01:01:28.274Z,1018.24
2019-04-29T01:02:28.264Z,1018.30
2019-04-29T01:03:28.253Z,1018.28
2019-04-29T01:04:28.245Z,1018.26
2019-04-29T01:05:28.222Z,1018.27
2019-04-29T01:06:28.226Z,1018.28
2019-04-29T01:07:28.206Z,1018.30
2019-04-29T01:08:28.204Z,1018.34
2019-04-29T01:09:28.184Z,1018.25
2019-04-29T01:10:28.174Z,1018.30
2019-04-29T01:11:28.174Z,1018.27
2019-04-29T01:12:28.153Z,1018.25
2019-04-29T01:13:28.133Z,1018.26
2019-04-29T01:14:28.146Z,1018.25
2019-04-29T01:15:28.123Z,1018.22
2019-04-29T01:16:28.120Z,1018.32
2019-04-29T01:17:28.105Z,1018.27
2019-04-29T01:18:28.103Z,1018.31
2019-04-29T01:19:28.077Z,1018.32
2019-04-29T01:20:28.075Z,1018.27
2019-04-29T01:21:28.062Z,1018.27
2019-04-29T01:22:28.061Z,1018.30
2019-04-29T01:23:28.035Z,1018.37
2019-04-29T01:24:28.027Z,1018.33
2019-04-29T01:25:28.017Z,1018.29
2019-04-29T01:26:28.015Z,1018.27
2019-04-29T01:27:27.997Z,1018.26
2019-04-29T01:28:27.981Z,1018.28
2019-04-29T01:29:27.975Z,1018.29
2019-04-29T01:30:27.952Z,1018.27
2019-04-29T01:31:27.962Z,1018.30
2019-04-29T01:32:27.932Z,1018.26
2019-04-29T01:33:27.935Z,1018.27
2019-04-29T01:34:27.920Z,1018.30
2019-04-29T01:35:27.914Z,1018.28
2019-04-29T01:36:27.913Z,1018.30
2019-04-29T01:37:27.880Z,1018.29
2019-04-29T01:38:27.862Z,1018.25
2019-04-29T01:39:27.863Z,1018.33
2019-04-29T01:40:27.851Z,1018.25
2019-04-29T01:41:27.865Z,1018.31
2019-04-29T01:42:27.831Z,1018.25
2019-04-29T01:43:27.821Z,1018.32
2019-04-29T01:44:27.813Z,1018.29
2019-04-29T01:45:27.791Z,1018.29
2019-04-29T01:46:27.771Z,1018.31
2019-04-29T01:47:27.793Z,1018.33
2019-04-29T01:48:27.761Z,1018.33
2019-04-29T01:49:27.751Z,1018.31
2019-04-29T01:50:27.743Z,1018.41
2019-04-29T01:51:27.733Z,1018.38
2019-04-29T01:52:27.720Z,1018.41
2019-04-29T01:53:27.710Z,1018.38
2019-04-29T01:54:27.695Z,1018.40
2019-04-29T01:55:27.679Z,1018.40
2019-04-29T01:56:27.671Z,1018.37
2019-04-29T01:57:27.672Z,1018.42
2019-04-29T01:58:27.683Z,1018.47
2019-04-29T01:59:27.677Z,1018.45
2019-04-29T02:00:27.650Z,1018.43
2019-04-29T02:01:27.621Z,1018.40
2019-04-29T02:02:27.599Z,1018.48
2019-04-29T02:03:27.602Z,1018.46
2019-04-29T02:04:27.630Z,1018.46
2019-04-29T02:05:27.599Z,1018.44
2019-04-29T02:06:27.560Z,1018.44
2019-04-29T02:07:27.582Z,1018.45
2019-04-29T02:08:27.539Z,1018.51
2019-04-29T02:09:27.539Z,1018.49
2019-04-29T02:10:27.541Z,1018.46
2019-04-29T02:11:27.511Z,1018.52
2019-04-29T02:12:27.501Z,1018.48
2019-04-29T02:13:27.500Z,1018.54
2019-04-29T02:14:27.499Z,1018.58
2019-04-29T02:15:27.471Z,1018.57
2019-04-29T02:16:27.459Z,1018.62
2019-04-29T02:17:27.451Z,1018.58
2019-04-29T02:18:27.441Z,1018.62
2019-04-29T02:19:27.419Z,1018.65
2019-04-29T02:20:27.430Z,1018.59
2019-04-29T02:21:27.409Z,1018.66
2019-04-29T02:22:27.385Z,1018.66
2019-04-29T02:23:27.368Z,1018.69
2019-04-29T02:24:27.377Z,1018.63
2019-04-29T02:25:27.357Z,1018.67
2019-04-29T02:26:27.337Z,1018.69
2019-04-29T02:27:27.329Z,1018.69
2019-04-29T02:28:27.339Z,1018.58
2019-04-29T02:29:27.307Z,1018.64
2019-04-29T02:30:27.342Z,1018.62
2019-04-29T02:31:27.321Z,1018.67
2019-04-29T02:32:27.289Z,1018.61
2019-04-29T02:33:27.280Z,1018.60
2019-04-29T02:34:27.259Z,1018.62
2019-04-29T02:35:27.277Z,1018.56
2019-04-29T02:36:29.921Z,1018.63
2019-04-29T02:37:27.266Z,1018.69
2019-04-29T02:38:27.237Z,1018.60
2019-04-29T02:39:27.219Z,1018.69
2019-04-29T02:40:27.196Z,1018.63
2019-04-29T02:41:27.192Z,1018.61
2019-04-29T02:42:27.192Z,1018.63
2019-04-29T02:43:27.158Z,1018.65
2019-04-29T02:44:27.177Z,1018.58
2019-04-29T02:45:27.172Z,1018.65
2019-04-29T02:46:27.129Z,1018.63
2019-04-29T02:47:27.131Z,1018.66
2019-04-29T02:48:30.259Z,1018.57
2019-04-29T02:49:28.128Z,1018.59
2019-04-29T02:50:27.101Z,1018.59
2019-04-29T02:51:27.079Z,1018.57
2019-04-29T02:52:27.066Z,1018.60
2019-04-29T02:53:27.055Z,1018.64
2019-04-29T02:54:27.048Z,1018.60
2019-04-29T02:55:27.033Z,1018.66
2019-04-29T02:56:27.028Z,1018.66
2019-04-29T02:57:27.028Z,1018.60
2019-04-29T02:58:26.985Z,1018.57
2019-04-29T02:59:26.986Z,1018.57
2019-04-29T03:00:26.987Z,1018.59
2019-04-29T03:01:26.963Z,1018.54
2019-04-29T03:02:26.959Z,1018.57
2019-04-29T03:03:26.987Z,1018.63
2019-04-29T03:04:26.947Z,1018.60
2019-04-29T03:05:26.918Z,1018.62
2019-04-29T03:06:26.914Z,1018.58
2019-04-29T03:07:26.905Z,1018.61
2019-04-29T03:08:26.907Z,1018.55
2019-04-29T03:09:26.875Z,1018.58
2019-04-29T03:10:26.876Z,1018.51
2019-04-29T03:11:26.866Z,1018.52
2019-04-29T03:12:26.888Z,1018.52
2019-04-29T03:13:26.854Z,1018.56
2019-04-29T03:14:26.844Z,1018.57
2019-04-29T03:15:26.844Z,1018.60
2019-04-29T03:16:26.815Z,1018.59
2019-04-29T03:17:26.833Z,1018.62
2019-04-29T03:18:26.796Z,1018.61
2019-04-29T03:19:26.776Z,1018.62
2019-04-29T03:20:26.753Z,1018.65
2019-04-29T03:21:26.753Z,1018.62
2019-04-29T03:22:26.732Z,1018.61
2019-04-29T03:23:26.745Z,1018.63
2019-04-29T03:24:26.821Z,1018.65
2019-04-29T03:25:26.704Z,1018.66
2019-04-29T03:26:26.719Z,1018.65
2019-04-29T03:27:26.702Z,1018.67
2019-04-29T03:28:26.715Z,1018.64
2019-04-29T03:29:26.680Z,1018.62
2019-04-29T03:30:26.676Z,1018.60
2019-04-29T03:31:26.643Z,1018.58
2019-04-29T03:32:26.626Z,1018.58
2019-04-29T03:33:26.647Z,1018.57
2019-04-29T03:34:26.654Z,1018.57
2019-04-29T03:35:26.612Z,1018.52
2019-04-29T03:36:26.611Z,1018.61
2019-04-29T03:37:26.583Z,1018.62
2019-04-29T03:38:26.595Z,1018.54
2019-04-29T03:39:26.612Z,1018.61
2019-04-29T03:40:26.545Z,1018.57
2019-04-29T03:41:26.534Z,1018.60
2019-04-29T03:42:26.542Z,1018.55
2019-04-29T03:43:26.514Z,1018.60
2019-04-29T03:44:26.566Z,1018.59
2019-04-29T03:45:26.503Z,1018.64
2019-04-29T03:46:26.504Z,1018.64
2019-04-29T03:47:26.462Z,1018.56
2019-04-29T03:48:26.464Z,1018.56
2019-04-29T03:49:26.471Z,1018.59
2019-04-29T03:50:26.494Z,1018.58
2019-04-29T03:51:26.444Z,1018.53
2019-04-29T03:52:26.411Z,1018.63
2019-04-29T03:53:28.472Z,1018.56
2019-04-29T03:54:26.401Z,1018.60
2019-04-29T03:55:38.824Z,1018.58
2019-04-29T03:56:27.383Z,1018.57
2019-04-29T03:57:26.369Z,1018.51
2019-04-29T03:58:26.350Z,1018.53
2019-04-29T03:59:26.339Z,1018.53
2019-04-29T04:00:26.345Z,1018.56
2019-04-29T04:01:26.337Z,1018.64
2019-04-29T04:02:26.330Z,1018.62
2019-04-29T04:03:26.289Z,1018.62
2019-04-29T04:04:26.280Z,1018.65
2019-04-29T04:05:26.289Z,1018.68
2019-04-29T04:06:26.265Z,1018.67
2019-04-29T04:07:26.264Z,1018.68
2019-04-29T04:08:26.241Z,1018.70
2019-04-29T04:09:26.239Z,1018.73
2019-04-29T04:10:26.235Z,1018.76
2019-04-29T04:11:26.234Z,1018.70
2019-04-29T04:12:26.220Z,1018.69
2019-04-29T04:13:26.191Z,1018.69
2019-04-29T04:14:26.179Z,1018.67
2019-04-29T04:15:26.191Z,1018.62
2019-04-29T04:16:26.169Z,1018.73
2019-04-29T04:17:26.150Z,1018.72
2019-04-29T04:18:26.141Z,1018.71
2019-04-29T04:19:26.131Z,1018.71
2019-04-29T04:20:26.121Z,1018.74
2019-04-29T04:21:26.149Z,1018.72
2019-04-29T04:22:26.090Z,1018.72
2019-04-29T04:23:26.078Z,1018.76
2019-04-29T04:24:26.069Z,1018.79
2019-04-29T04:25:26.079Z,1018.78
2019-04-29T04:26:26.038Z,1018.75
2019-04-29T04:27:26.069Z,1018.72
2019-04-29T04:28:26.034Z,1018.80
2019-04-29T04:29:26.016Z,1018.80
2019-04-29T04:30:26.025Z,1018.81
2019-04-29T04:31:26.006Z,1018.80
2019-04-29T04:32:25.988Z,1018.74
2019-04-29T04:33:25.979Z,1018.74
2019-04-29T04:34:25.977Z,1018.77
2019-04-29T04:35:25.962Z,1018.78
2019-04-29T04:36:25.933Z,1018.77
2019-04-29T04:37:25.942Z,1018.80
2019-04-29T04:38:25.927Z,1018.80
2019-04-29T04:39:25.943Z,1018.81
2019-04-29T04:40:25.923Z,1018.72
2019-04-29T04:41:25.888Z,1018.78
2019-04-29T04:42:29.583Z,1018.74
2019-04-29T04:43:25.867Z,1018.79
2019-04-29T04:44:25.859Z,1018.83
2019-04-29T04:45:25.857Z,1018.75
2019-04-29T04:46:25.824Z,1018.77
2019-04-29T04:47:25.806Z,1018.80
2019-04-29T04:48:25.823Z,1018.84
2019-04-29T04:49:25.805Z,1018.81
2019-04-29T04:50:25.784Z,1018.86
2019-04-29T04:51:25.797Z,1018.87
2019-04-29T04:52:25.775Z,1018.82
2019-04-29T04:53:25.797Z,1018.78
2019-04-29T04:54:25.747Z,1018.82
2019-04-29T04:55:25.725Z,1018.83
2019-04-29T04:56:25.728Z,1018.82
2019-04-29T04:57:25.711Z,1018.83
2019-04-29T04:58:25.745Z,1018.86
2019-04-29T04:59:25.706Z,1018.93
2019-04-29T05:00:25.695Z,1018.92
2019-04-29T05:01:25.671Z,1018.92
2019-04-29T05:02:25.654Z,1018.85
2019-04-29T05:03:25.643Z,1018.86
2019-04-29T05:04:25.643Z,1018.85
2019-04-29T05:05:25.615Z,1018.86
2019-04-29T05:06:25.603Z,1018.95
2019-04-29T05:07:25.616Z,1018.90
2019-04-29T05:08:25.582Z,1018.94
2019-04-29T05:09:25.572Z,1018.93
2019-04-29T05:10:25.573Z,1019.08
2019-04-29T05:11:25.614Z,1019.00
2019-04-29T05:12:25.545Z,1019.00
2019-04-29T05:13:28.448Z,1019.01
2019-04-29T05:14:25.531Z,1019.05
2019-04-29T05:15:25.511Z,1019.06
2019-04-29T05:16:25.512Z,1018.95
2019-04-29T05:17:25.505Z,1018.96
2019-04-29T05:18:25.493Z,1018.98
2019-04-29T05:19:25.471Z,1019.08
2019-04-29T05:20:25.451Z,1019.03
2019-04-29T05:21:25.453Z,1019.06
2019-04-29T05:22:25.431Z,1018.96
2019-04-29T05:23:25.421Z,1019.12
2019-04-29T05:24:25.443Z,1019.12
2019-04-29T05:25:25.404Z,1019.12
2019-04-29T05:26:25.381Z,1019.05
2019-04-29T05:27:25.382Z,1019.08
2019-04-29T05:28:25.360Z,1019.08
2019-04-29T05:29:28.474Z,1019.14
2019-04-29T05:30:25.363Z,1019.13
2019-04-29T05:31:25.344Z,1019.10
2019-04-29T05:32:25.319Z,1019.03
2019-04-29T05:33:25.309Z,1019.09
2019-04-29T05:34:25.318Z,1019.06
2019-04-29T05:35:26.448Z,1019.09
2019-04-29T05:36:25.284Z,1019.13
2019-04-29T05:37:25.280Z,1019.13
2019-04-29T05:38:25.270Z,1019.15
2019-04-29T05:39:25.258Z,1019.18
2019-04-29T05:40:25.239Z,1019.13
2019-04-29T05:41:25.230Z,1019.18
2019-04-29T05:42:25.230Z,1019.20
2019-04-29T05:43:27.070Z,1019.12
2019-04-29T05:44:26.200Z,1019.15
2019-04-29T05:45:25.189Z,1019.13
2019-04-29T05:46:25.201Z,1019.16
2019-04-29T05:47:25.171Z,1019.10
2019-04-29T05:48:27.606Z,1019.14
2019-04-29T05:49:26.137Z,1019.12
2019-04-29T05:50:25.139Z,1019.17
2019-04-29T05:51:27.335Z,1019.23
2019-04-29T05:52:25.134Z,1019.27
2019-04-29T05:53:25.111Z,1019.26
2019-04-29T05:54:26.894Z,1019.32
2019-04-29T05:55:26.091Z,1019.37
2019-04-29T05:56:25.089Z,1019.26
2019-04-29T05:57:25.780Z,1019.26
2019-04-29T05:58:25.044Z,1019.26
2019-04-29T05:59:25.037Z,1019.29
2019-04-29T06:00:25.043Z,1019.29
2019-04-29T06:01:25.031Z,1019.30
2019-04-29T06:02:33.103Z,1019.33
2019-04-29T06:03:25.989Z,1019.36
2019-04-29T06:04:24.975Z,1019.27
2019-04-29T06:05:24.978Z,1019.33
2019-04-29T06:06:24.974Z,1019.33
2019-04-29T06:07:26.823Z,1019.34
2019-04-29T06:08:24.938Z,1019.32
2019-04-29T06:09:24.916Z,1019.33
2019-04-29T06:10:24.957Z,1019.39
2019-04-29T06:11:24.919Z,1019.40
2019-04-29T06:12:24.888Z,1019.36
2019-04-29T06:13:24.885Z,1019.44
2019-04-29T06:14:24.868Z,1019.45
2019-04-29T06:15:24.867Z,1019.40
2019-04-29T06:16:24.851Z,1019.44
2019-04-29T06:17:24.847Z,1019.38
2019-04-29T06:18:24.837Z,1019.40
2019-04-29T06:19:24.814Z,1019.41
2019-04-29T06:20:24.817Z,1019.41
2019-04-29T06:21:24.915Z,1019.45
2019-04-29T06:22:24.775Z,1019.45
2019-04-29T06:23:24.781Z,1019.49
2019-04-29T06:24:24.767Z,1019.45
2019-04-29T06:25:24.757Z,1019.48
2019-04-29T06:26:24.815Z,1019.51
2019-04-29T06:27:24.736Z,1019.43
2019-04-29T06:28:26.362Z,1019.42
2019-04-29T06:29:24.766Z,1019.50
2019-04-29T06:30:24.707Z,1019.55
2019-04-29T06:31:24.685Z,1019.51
2019-04-29T06:32:26.354Z,1019.47
2019-04-29T06:33:29.194Z,1019.49
2019-04-29T06:34:25.644Z,1019.49
2019-04-29T06:35:24.634Z,1019.49
2019-04-29T06:36:24.634Z,1019.47
2019-04-29T06:37:24.645Z,1019.53
2019-04-29T06:38:24.615Z,1019.56
2019-04-29T06:39:24.610Z,1019.57
2019-04-29T06:40:24.573Z,1019.61
2019-04-29T06:41:24.574Z,1019.45
2019-04-29T06:42:24.552Z,1019.58
2019-04-29T06:43:28.409Z,1019.52
2019-04-29T06:44:24.542Z,1019.55
2019-04-29T06:45:24.534Z,1019.48
2019-04-29T06:46:24.514Z,1019.58
2019-04-29T06:47:24.522Z,1019.52
2019-04-29T06:48:24.523Z,1019.55
2019-04-29T06:49:24.483Z,1019.56
2019-04-29T06:50:24.484Z,1019.52
2019-04-29T06:51:24.452Z,1019.62
2019-04-29T06:52:24.521Z,1019.57
2019-04-29T06:53:24.441Z,1019.59
2019-04-29T06:54:24.442Z,1019.58
2019-04-29T06:55:24.423Z,1019.61
2019-04-29T06:56:24.422Z,1019.59
2019-04-29T06:57:24.400Z,1019.62
2019-04-29T06:58:24.391Z,1019.63
2019-04-29T06:59:24.382Z,1019.63
2019-04-29T07:00:24.375Z,1019.58
2019-04-29T07:01:24.372Z,1019.61
2019-04-29T07:02:24.358Z,1019.55
2019-04-29T07:03:25.586Z,1019.56
2019-04-29T07:04:24.331Z,1019.51
2019-04-29T07:05:24.301Z,1019.55
2019-04-29T07:06:24.291Z,1019.59
2019-04-29T07:07:24.281Z,1019.58
2019-04-29T07:08:24.271Z,1019.51
2019-04-29T07:09:24.294Z,1019.54
2019-04-29T07:10:27.131Z,1019.59
2019-04-29T07:11:24.253Z,1019.56
2019-04-29T07:12:24.233Z,1019.50
2019-04-29T07:13:24.603Z,1019.54
2019-04-29T07:14:24.214Z,1019.52
2019-04-29T07:15:24.213Z,1019.43
2019-04-29T07:16:26.876Z,1019.44
2019-04-29T07:17:24.179Z,1019.50
2019-04-29T07:18:24.171Z,1019.46
2019-04-29T07:19:26.708Z,1019.47
2019-04-29T07:20:24.162Z,1019.46
2019-04-29T07:21:24.143Z,1019.49
2019-04-29T07:22:25.723Z,1019.40
2019-04-29T07:23:24.109Z,1019.50
2019-04-29T07:24:24.102Z,1019.48
2019-04-29T07:25:24.582Z,1019.49
2019-04-29T07:26:24.084Z,1019.55
2019-04-29T07:27:24.070Z,1019.56
2019-04-29T07:28:24.058Z,1019.58
2019-04-29T07:29:29.693Z,1019.55
2019-04-29T07:30:25.051Z,1019.60
2019-04-29T07:31:28.425Z,1019.52
2019-04-29T07:32:24.999Z,1019.54
2019-04-29T07:33:24.479Z,1019.50
2019-04-29T07:34:23.988Z,1019.60
2019-04-29T07:35:23.980Z,1019.56
2019-04-29T07:36:24.030Z,1019.58
2019-04-29T07:37:23.958Z,1019.62
2019-04-29T07:38:23.951Z,1019.62
2019-04-29T07:39:26.833Z,1019.63
2019-04-29T07:40:24.919Z,1019.65
2019-04-29T07:41:23.921Z,1019.72
2019-04-29T07:42:25.054Z,1019.65
2019-04-29T07:43:24.888Z,1019.74
2019-04-29T07:44:23.882Z,1019.65
2019-04-29T07:45:28.033Z,1019.68
2019-04-29T07:46:24.872Z,1019.70
2019-04-29T07:47:24.975Z,1019.81
2019-04-29T07:48:24.868Z,1019.74
2019-04-29T07:49:23.818Z,1019.77
2019-04-29T07:50:26.798Z,1019.72
2019-04-29T07:51:23.837Z,1019.75
2019-04-29T07:52:23.788Z,1019.68
2019-04-29T07:53:34.484Z,1019.79
2019-04-29T07:54:24.767Z,1019.71
2019-04-29T07:55:26.084Z,1019.71
2019-04-29T07:56:24.791Z,1019.76
2019-04-29T07:57:23.739Z,1019.78
2019-04-29T07:58:27.360Z,1019.79
2019-04-29T07:59:23.707Z,1019.73
2019-04-29T08:00:23.711Z,1019.67
2019-04-29T08:01:24.650Z,1019.70
2019-04-29T08:02:23.695Z,1019.75
2019-04-29T08:03:23.668Z,1019.73
2019-04-29T08:04:23.649Z,1019.73
2019-04-29T08:05:23.658Z,1019.72
2019-04-29T08:06:23.657Z,1019.74
2019-04-29T08:07:23.636Z,1019.74
2019-04-29T08:08:23.607Z,1019.81
2019-04-29T08:09:23.612Z,1019.76
2019-04-29T08:10:27.661Z,1019.70
2019-04-29T08:11:24.608Z,1019.71
2019-04-29T08:12:23.588Z,1019.63
2019-04-29T08:13:23.568Z,1019.70
2019-04-29T08:14:23.546Z,1019.64
2019-04-29T08:15:23.549Z,1019.62
2019-04-29T08:16:23.538Z,1019.69
2019-04-29T08:17:23.526Z,1019.64
2019-04-29T08:18:23.517Z,1019.64
2019-04-29T08:19:24.772Z,1019.67
2019-04-29T08:20:24.498Z,1019.68
2019-04-29T08:21:23.475Z,1019.66
2019-04-29T08:22:27.813Z,1019.68
2019-04-29T08:23:24.458Z,1019.68
2019-04-29T08:24:23.434Z,1019.71
2019-04-29T08:25:26.053Z,1019.63
2019-04-29T08:26:23.417Z,1019.66
2019-04-29T08:27:23.427Z,1019.64
2019-04-29T08:28:23.426Z,1019.69
2019-04-29T08:29:23.391Z,1019.59
2019-04-29T08:30:23.365Z,1019.53
2019-04-29T08:31:23.355Z,1019.51
2019-04-29T08:32:23.358Z,1019.55
2019-04-29T08:33:23.347Z,1019.57
2019-04-29T08:34:24.372Z,1019.56
2019-04-29T08:35:23.325Z,1019.59
2019-04-29T08:36:23.317Z,1019.58
2019-04-29T08:37:24.930Z,1019.59
2019-04-29T08:38:23.275Z,1019.60
2019-04-29T08:39:25.116Z,1019.61
2019-04-29T08:40:24.286Z,1019.50
2019-04-29T08:41:28.536Z,1019.62
2019-04-29T08:42:24.234Z,1019.61
2019-04-29T08:43:23.237Z,1019.64
2019-04-29T08:44:23.212Z,1019.59
2019-04-29T08:45:23.236Z,1019.61
2019-04-29T08:46:23.227Z,1019.63
2019-04-29T08:47:30.529Z,1019.64
2019-04-29T08:48:24.176Z,1019.61
2019-04-29T08:49:23.163Z,1019.64
2019-04-29T08:50:23.154Z,1019.63
2019-04-29T08:51:23.166Z,1019.60
2019-04-29T08:52:23.134Z,1019.59
2019-04-29T08:53:23.116Z,1019.66
2019-04-29T08:54:23.106Z,1019.66
2019-04-29T08:55:26.607Z,1019.61
2019-04-29T08:56:24.097Z,1019.57
2019-04-29T08:57:23.064Z,1019.64
2019-04-29T08:58:23.076Z,1019.64
2019-04-29T08:59:24.405Z,1019.67
2019-04-29T09:00:23.064Z,1019.62
2019-04-29T09:01:24.702Z,1019.66
2019-04-29T09:02:34.468Z,1019.66
2019-04-29T09:03:24.419Z,1019.64
2019-04-29T09:04:23.022Z,1019.66
2019-04-29T09:05:22.997Z,1019.64
2019-04-29T09:06:22.982Z,1019.62
2019-04-29T09:07:23.232Z,1019.65
2019-04-29T09:08:22.998Z,1019.64
2019-04-29T09:09:28.997Z,1019.63
2019-04-29T09:10:23.929Z,1019.66
2019-04-29T09:11:22.914Z,1019.59
2019-04-29T09:12:24.185Z,1019.65
2019-04-29T09:13:22.905Z,1019.65
2019-04-29T09:14:22.917Z,1019.76
2019-04-29T09:15:22.885Z,1019.67
2019-04-29T09:16:22.889Z,1019.63
2019-04-29T09:17:22.853Z,1019.67
2019-04-29T09:18:22.864Z,1019.66
2019-04-29T09:19:22.835Z,1019.67
2019-04-29T09:20:22.825Z,1019.63
2019-04-29T09:21:22.830Z,1019.61
2019-04-29T09:22:22.806Z,1019.60
2019-04-29T09:23:22.795Z,1019.66
2019-04-29T09:24:22.773Z,1019.66
2019-04-29T09:25:26.374Z,1019.55
2019-04-29T09:26:24.340Z,1019.61
2019-04-29T09:27:22.805Z,1019.66
2019-04-29T09:28:27.805Z,1019.62
2019-04-29T09:29:23.736Z,1019.71
2019-04-29T09:30:22.703Z,1019.73
2019-04-29T09:31:22.693Z,1019.67
2019-04-29T09:32:22.683Z,1019.67
2019-04-29T09:33:22.715Z,1019.67
2019-04-29T09:34:24.738Z,1019.64
2019-04-29T09:35:22.653Z,1019.58
2019-04-29T09:36:22.645Z,1019.65
2019-04-29T09:37:23.053Z,1019.57
2019-04-29T09:38:22.632Z,1019.54
2019-04-29T09:39:22.633Z,1019.54
2019-04-29T09:40:22.605Z,1019.49
2019-04-29T09:41:22.594Z,1019.49
2019-04-29T09:42:22.585Z,1019.49
2019-04-29T09:43:25.845Z,1019.49
2019-04-29T09:44:22.565Z,1019.47
2019-04-29T09:45:24.557Z,1019.43
2019-04-29T09:46:22.542Z,1019.50
2019-04-29T09:47:22.522Z,1019.52
2019-04-29T09:48:22.725Z,1019.46
2019-04-29T09:49:22.542Z,1019.53
2019-04-29T09:50:22.654Z,1019.50
2019-04-29T09:51:27.716Z,1019.49
2019-04-29T09:52:23.462Z,1019.54
2019-04-29T09:53:22.657Z,1019.42
2019-04-29T09:54:22.557Z,1019.43
2019-04-29T09:55:22.524Z,1019.47
2019-04-29T09:56:22.518Z,1019.47
2019-04-29T09:57:22.425Z,1019.48
2019-04-29T09:58:22.404Z,1019.45
2019-04-29T09:59:22.392Z,1019.45
2019-04-29T10:00:22.382Z,1019.43
2019-04-29T10:01:22.373Z,1019.47
2019-04-29T10:02:26.327Z,1019.43
2019-04-29T10:03:23.355Z,1019.42
2019-04-29T10:04:22.344Z,1019.44
2019-04-29T10:05:22.345Z,1019.35
2019-04-29T10:06:22.312Z,1019.43
2019-04-29T10:07:22.319Z,1019.42
2019-04-29T10:08:22.283Z,1019.43
2019-04-29T10:09:22.302Z,1019.36
2019-04-29T10:10:22.263Z,1019.39
2019-04-29T10:11:22.274Z,1019.34
2019-04-29T10:12:22.252Z,1019.43
2019-04-29T10:13:22.255Z,1019.29
2019-04-29T10:14:22.233Z,1019.33
2019-04-29T10:15:22.241Z,1019.32
2019-04-29T10:16:22.202Z,1019.23
2019-04-29T10:17:22.202Z,1019.23
2019-04-29T10:18:25.005Z,1019.29
2019-04-29T10:19:23.175Z,1019.26
2019-04-29T10:20:22.175Z,1019.23
2019-04-29T10:21:23.376Z,1019.21
2019-04-29T10:22:22.185Z,1019.28
2019-04-29T10:23:22.131Z,1019.16
2019-04-29T10:24:22.132Z,1019.21
2019-04-29T10:25:22.163Z,1019.25
2019-04-29T10:26:22.129Z,1019.22
2019-04-29T10:27:22.094Z,1019.23
2019-04-29T10:28:22.072Z,1019.27
2019-04-29T10:29:22.062Z,1019.23
2019-04-29T10:30:22.067Z,1019.16
2019-04-29T10:31:22.062Z,1019.13
2019-04-29T10:32:22.032Z,1019.18
2019-04-29T10:33:23.126Z,1019.17
2019-04-29T10:34:22.024Z,1019.11
2019-04-29T10:35:22.009Z,1019.10
2019-04-29T10:36:22.005Z,1019.03
2019-04-29T10:37:23.721Z,1019.09
2019-04-29T10:38:22.962Z,1019.10
2019-04-29T10:39:22.746Z,1019.10
2019-04-29T10:40:21.933Z,1019.15
2019-04-29T10:41:21.942Z,1019.10
2019-04-29T10:42:23.091Z,1019.07
2019-04-29T10:43:21.926Z,1019.12
2019-04-29T10:44:21.903Z,1019.19
2019-04-29T10:45:21.888Z,1019.11
2019-04-29T10:46:21.877Z,1019.07
2019-04-29T10:47:21.873Z,1019.06
2019-04-29T10:48:21.853Z,1019.02
2019-04-29T10:49:21.864Z,1018.99
2019-04-29T10:50:23.822Z,1019.01
2019-04-29T10:51:23.293Z,1018.98
2019-04-29T10:52:22.814Z,1019.00
2019-04-29T10:53:21.805Z,1018.96
2019-04-29T10:54:21.808Z,1018.97
2019-04-29T10:55:21.783Z,1018.97
2019-04-29T10:56:21.762Z,1018.94
2019-04-29T10:57:21.760Z,1018.92
2019-04-29T10:58:26.635Z,1018.95
2019-04-29T10:59:35.343Z,1018.89
2019-04-29T11:00:23.471Z,1018.90
2019-04-29T11:01:21.702Z,1018.88
2019-04-29T11:02:21.721Z,1018.88
2019-04-29T11:03:24.984Z,1018.91
2019-04-29T11:04:21.695Z,1018.83
2019-04-29T11:05:21.673Z,1018.89
2019-04-29T11:06:21.663Z,1018.79
2019-04-29T11:07:26.490Z,1018.86
2019-04-29T11:08:22.656Z,1018.85
2019-04-29T11:09:21.653Z,1018.82
2019-04-29T11:10:25.312Z,1018.83
2019-04-29T11:11:23.430Z,1018.89
2019-04-29T11:12:22.605Z,1018.83
2019-04-29T11:13:21.585Z,1018.79
2019-04-29T11:14:24.686Z,1018.83
2019-04-29T11:15:21.565Z,1018.78
2019-04-29T11:16:22.861Z,1018.76
2019-04-29T11:17:22.545Z,1018.79
2019-04-29T11:18:23.294Z,1018.80
2019-04-29T11:19:21.524Z,1018.84
2019-04-29T11:20:21.714Z,1018.87
2019-04-29T11:21:25.095Z,1018.76
2019-04-29T11:22:22.492Z,1018.81
2019-04-29T11:23:21.482Z,1018.72
2019-04-29T11:24:21.465Z,1018.72
2019-04-29T11:25:21.452Z,1018.75
2019-04-29T11:26:21.444Z,1018.81
2019-04-29T11:27:21.433Z,1018.74
2019-04-29T11:28:21.423Z,1018.68
2019-04-29T11:29:22.225Z,1018.86
2019-04-29T11:30:22.395Z,1018.73
2019-04-29T11:31:21.400Z,1018.76
2019-04-29T11:32:24.793Z,1018.70
2019-04-29T11:33:22.382Z,1018.64
2019-04-29T11:34:21.352Z,1018.67
2019-04-29T11:35:24.512Z,1018.69
2019-04-29T11:36:22.322Z,1018.74
2019-04-29T11:37:23.853Z,1018.66
2019-04-29T11:38:21.315Z,1018.66
2019-04-29T11:39:21.314Z,1018.65
2019-04-29T11:40:26.085Z,1018.60
2019-04-29T11:41:22.285Z,1018.65
2019-04-29T11:42:21.276Z,1018.59
2019-04-29T11:43:21.255Z,1018.62
2019-04-29T11:44:21.861Z,1018.64
2019-04-29T11:45:21.235Z,1018.59
2019-04-29T11:46:21.277Z,1018.50
2019-04-29T11:47:25.222Z,1018.52
2019-04-29T11:48:22.191Z,1018.51
2019-04-29T11:49:21.222Z,1018.52
2019-04-29T11:50:21.175Z,1018.53
2019-04-29T11:51:21.319Z,1018.52
2019-04-29T11:52:23.735Z,1018.36
2019-04-29T11:53:22.142Z,1018.50
2019-04-29T11:54:21.268Z,1018.50
2019-04-29T11:55:21.140Z,1018.48
2019-04-29T11:56:21.140Z,1018.47
2019-04-29T11:57:21.125Z,1018.54
2019-04-29T11:58:21.105Z,1018.43
2019-04-29T11:59:21.176Z,1018.51
2019-04-29T12:00:21.121Z,1018.50
2019-04-29T12:01:21.065Z,1018.50
2019-04-29T12:02:24.278Z,1018.51
2019-04-29T12:03:22.085Z,1018.46
2019-04-29T12:04:21.055Z,1018.51
2019-04-29T12:05:21.145Z,1018.45